Time;durP1;ratioP1;P1;durP2;ratioP2;P2;SDS_P1;SDS_P2;PMS_P1;PMS_P2;Temp;Humidity;BMP_temperature;BMP_pressure;BME280_temperature;BME280_humidity;BME280_pressure;Samples;Min_cycle;Max_cycle;Signal;HPM_P1;HPM_P2
2022/04/04 00:01:43;;;;;;;;;;;1.00;97.60;;;;;;5045115;28;19925;-76
2022/04/04 00:04:10;;;;;;;;;;;1.00;97.50;;;;;;5044144;28;19932;-76
2022/04/04 00:06:37;;;;;;;;;;;1.00;97.50;;;;;;5043630;28;19933;-76
2022/04/04 00:09:04;;;;;;;;;;;1.00;97.50;;;;;;5044014;28;19925;-76
2022/04/04 00:11:32;;;;;;;;;;;1.00;97.50;;;;;;5055127;28;19932;-76
2022/04/04 00:13:59;;;;;;;;;;;1.00;97.50;;;;;;5058925;28;20345;-75
2022/04/04 00:16:26;;;;;;;;;;;1.00;97.50;;;;;;5047483;28;19925;-76
2022/04/04 00:18:53;;;;;;;;;;;1.00;97.50;;;;;;5037324;28;19939;-76
2022/04/04 00:21:20;;;;;;;;;;;1.00;97.60;;;;;;5045590;28;20252;-76
2022/04/04 00:23:47;;;;;;;;;;;1.00;97.50;;;;;;5043726;28;19929;-76
2022/04/04 00:26:14;;;;;;;;;;;1.00;97.50;;;;;;5041288;28;20524;-76
2022/04/04 00:28:43;;;;;;;;;;;0.90;97.50;;;;;;5044670;28;19925;-76
2022/04/04 00:31:09;;;;;;;;;;;0.90;97.60;;;;;;5043340;28;19929;-76
2022/04/04 00:33:36;;;;;;;;;;;0.90;97.60;;;;;;5047593;28;19975;-76
2022/04/04 00:36:03;;;;;;;;;;;1.00;97.60;;;;;;5044516;28;19998;-76
2022/04/04 00:38:30;;;;;;;;;;;0.90;97.50;;;;;;5065264;28;19936;-76
2022/04/04 00:40:57;;;;;;;;;;;0.90;97.50;;;;;;5046200;28;19932;-76
2022/04/04 00:43:25;;;;;;;;;;;0.90;97.60;;;;;;5060485;28;19932;-76
2022/04/04 00:45:53;;;;;;;;;;;0.90;97.60;;;;;;5048652;28;20348;-76
2022/04/04 00:48:20;;;;;;;;;;;0.90;97.50;;;;;;5047239;28;19928;-76
2022/04/04 00:50:47;;;;;;;;;;;0.90;97.50;;;;;;5047671;28;19932;-76
2022/04/04 00:53:14;;;;;;;;;;;0.90;97.50;;;;;;5041888;28;20042;-76
2022/04/04 00:55:41;;;;;;;;;;;0.90;97.50;;;;;;5046775;28;19931;-76
2022/04/04 00:58:08;;;;;;;;;;;0.90;97.50;;;;;;5042923;28;20015;-75
2022/04/04 01:00:36;;;;;;;;;;;0.90;97.40;;;;;;5046338;28;19932;-76
2022/04/04 01:03:04;;;;;;;;;;;0.90;97.40;;;;;;5048430;28;20002;-76
2022/04/04 01:05:31;;;;;;;;;;;0.80;97.40;;;;;;5041630;28;19982;-76
2022/04/04 01:07:58;;;;;;;;;;;0.80;97.40;;;;;;5042264;28;19982;-76
2022/04/04 01:10:25;;;;;;;;;;;0.80;97.50;;;;;;5059336;28;19925;-76
2022/04/04 01:12:52;;;;;;;;;;;0.80;97.50;;;;;;5043297;28;19974;-76
2022/04/04 01:15:19;;;;;;;;;;;0.80;97.50;;;;;;5053622;28;19971;-76
2022/04/04 01:17:46;;;;;;;;;;;0.80;97.50;;;;;;5042363;28;19932;-76
2022/04/04 01:20:15;;;;;;;;;;;0.80;97.40;;;;;;5042692;28;19933;-76
2022/04/04 01:22:45;;;;;;;;;;;0.80;97.40;;;;;;5040509;28;19933;-76
2022/04/04 01:25:13;;;;;;;;;;;0.80;97.40;;;;;;5040932;28;19935;-76
2022/04/04 01:27:40;;;;;;;;;;;0.70;97.30;;;;;;5055335;28;20019;-76
2022/04/04 01:30:08;;;;;;;;;;;0.70;97.30;;;;;;5045338;28;19971;-75
2022/04/04 01:32:35;;;;;;;;;;;0.70;97.30;;;;;;5046069;28;20019;-76
2022/04/04 01:35:02;;;;;;;;;;;0.70;97.40;;;;;;5044472;28;19964;-76
2022/04/04 01:37:29;;;;;;;;;;;0.70;97.40;;;;;;5044896;28;19932;-76
2022/04/04 01:39:56;;;;;;;;;;;0.60;97.30;;;;;;5045409;28;19931;-76
2022/04/04 01:42:24;;;;;;;;;;;0.60;97.30;;;;;;5042369;28;19932;-76
2022/04/04 01:44:51;;;;;;;;;;;0.60;97.30;;;;;;5043250;28;19955;-76
2022/04/04 01:47:18;;;;;;;;;;;0.60;97.30;;;;;;5036744;28;20012;-77
2022/04/04 01:49:45;;;;;;;;;;;0.60;97.30;;;;;;5046337;28;19987;-76
2022/04/04 01:52:12;;;;;;;;;;;0.60;97.30;;;;;;5044518;28;19937;-76
2022/04/04 01:54:39;;;;;;;;;;;0.60;97.30;;;;;;5044704;28;19924;-76
2022/04/04 01:57:09;;;;;;;;;;;0.60;97.20;;;;;;5042965;28;19924;-76
2022/04/04 01:59:37;;;;;;;;;;;0.60;97.20;;;;;;5047596;28;19932;-76
2022/04/04 02:02:04;;;;;;;;;;;0.60;97.10;;;;;;5043033;28;19931;-76
2022/04/04 02:04:31;;;;;;;;;;;0.60;97.10;;;;;;5041986;28;19936;-76
2022/04/04 02:06:59;;;;;;;;;;;0.60;97.10;;;;;;5045282;28;20349;-75
2022/04/04 02:09:26;;;;;;;;;;;0.50;97.10;;;;;;5039243;28;19941;-76
2022/04/04 02:11:52;;;;;;;;;;;0.60;97.10;;;;;;5047022;28;20449;-76
2022/04/04 02:14:21;;;;;;;;;;;0.50;97.00;;;;;;5042265;28;19936;-76
2022/04/04 02:16:49;;;;;;;;;;;0.50;97.10;;;;;;5047857;28;19963;-76
2022/04/04 02:19:16;;;;;;;;;;;0.50;97.00;;;;;;5041141;28;19925;-76
2022/04/04 02:21:43;;;;;;;;;;;0.50;97.00;;;;;;5041107;28;19962;-76
2022/04/04 02:24:10;;;;;;;;;;;0.40;97.00;;;;;;5039730;28;19932;-76
2022/04/04 02:26:37;;;;;;;;;;;0.50;97.00;;;;;;5045147;28;19929;-76
2022/04/04 02:29:03;;;;;;;;;;;0.40;97.00;;;;;;5044389;28;19925;-76
2022/04/04 02:31:30;;;;;;;;;;;0.40;97.00;;;;;;5042057;28;19929;-76
2022/04/04 02:34:00;;;;;;;;;;;0.40;97.00;;;;;;5040755;28;20318;-76
2022/04/04 02:36:27;;;;;;;;;;;0.30;96.90;;;;;;5041264;28;19928;-76
2022/04/04 02:38:54;;;;;;;;;;;0.30;96.90;;;;;;5047996;28;19925;-76
2022/04/04 02:41:21;;;;;;;;;;;0.30;96.90;;;;;;5041062;28;20379;-76
2022/04/04 02:43:48;;;;;;;;;;;0.30;96.90;;;;;;5047073;28;20291;-75
2022/04/04 02:46:15;;;;;;;;;;;0.30;97.20;;;;;;5045506;28;20366;-76
2022/04/04 02:48:42;;;;;;;;;;;0.30;96.90;;;;;;5044325;28;19929;-75
2022/04/04 02:51:10;;;;;;;;;;;0.30;96.90;;;;;;5046091;28;19929;-76
2022/04/04 02:53:37;;;;;;;;;;;0.30;96.90;;;;;;5038964;28;19929;-76
2022/04/04 02:58:48;;;;;;;;;;;0.20;96.90;;;;;;5039129;28;19921;-76
2022/04/04 03:01:16;;;;;;;;;;;0.20;96.80;;;;;;5041088;28;19924;-76
2022/04/04 03:03:42;;;;;;;;;;;0.20;96.80;;;;;;5039826;28;19929;-76
2022/04/04 03:06:11;;;;;;;;;;;0.20;96.80;;;;;;5040188;28;19934;-76
2022/04/04 03:08:38;;;;;;;;;;;0.20;96.80;;;;;;5055923;28;19925;-76
2022/04/04 03:11:05;;;;;;;;;;;0.20;96.90;;;;;;5037519;28;20072;-75
2022/04/04 03:13:31;;;;;;;;;;;0.20;96.90;;;;;;5046957;28;20306;-75
2022/04/04 03:15:58;;;;;;;;;;;0.20;97.10;;;;;;5047809;28;19925;-75
2022/04/04 03:18:25;;;;;;;;;;;0.20;96.80;;;;;;5042547;28;20024;-75
2022/04/04 03:20:52;;;;;;;;;;;0.20;96.80;;;;;;5041034;28;19929;-75
2022/04/04 03:23:22;;;;;;;;;;;0.20;96.80;;;;;;5039228;28;19925;-75
2022/04/04 03:25:48;;;;;;;;;;;0.20;96.80;;;;;;5038917;28;20303;-75
2022/04/04 03:28:15;;;;;;;;;;;0.20;96.70;;;;;;5044887;28;19931;-75
2022/04/04 03:30:42;;;;;;;;;;;0.20;96.70;;;;;;5057400;28;20391;-75
2022/04/04 03:33:09;;;;;;;;;;;0.20;96.80;;;;;;5062177;28;19925;-75
2022/04/04 03:35:36;;;;;;;;;;;0.20;96.70;;;;;;5059836;28;19932;-75
2022/04/04 03:38:04;;;;;;;;;;;0.10;96.80;;;;;;5059501;28;20288;-76
2022/04/04 03:40:32;;;;;;;;;;;0.10;96.70;;;;;;5045906;28;20383;-75
2022/04/04 03:43:00;;;;;;;;;;;0.10;96.70;;;;;;5045502;28;19979;-75
2022/04/04 03:45:27;;;;;;;;;;;0.10;97.00;;;;;;5039925;28;19932;-76
2022/04/04 03:47:54;;;;;;;;;;;0.10;96.60;;;;;;5035508;28;19940;-76
2022/04/04 03:50:22;;;;;;;;;;;0.20;96.70;;;;;;5048124;28;19954;-75
2022/04/04 03:52:51;;;;;;;;;;;0.10;96.70;;;;;;5046048;28;19983;-75
2022/04/04 03:55:19;;;;;;;;;;;0.10;96.60;;;;;;5048377;28;20015;-75
2022/04/04 03:57:48;;;;;;;;;;;0.00;96.50;;;;;;5045055;28;19933;-75
2022/04/04 04:00:15;;;;;;;;;;;0.00;96.80;;;;;;5041325;28;19925;-75
2022/04/04 04:02:42;;;;;;;;;;;0.00;96.70;;;;;;5050172;28;20375;-75
2022/04/04 04:05:09;;;;;;;;;;;0.00;96.90;;;;;;5064490;28;20437;-75
2022/04/04 04:07:36;;;;;;;;;;;0.00;96.80;;;;;;5042980;28;19971;-75
2022/04/04 04:10:03;;;;;;;;;;;0.00;96.80;;;;;;5047398;28;19935;-75
2022/04/04 04:12:31;;;;;;;;;;;0.00;96.80;;;;;;5043553;28;19967;-75
2022/04/04 04:14:59;;;;;;;;;;;0.00;96.80;;;;;;5041922;28;19943;-75
2022/04/04 04:17:26;;;;;;;;;;;0.00;96.70;;;;;;5041496;28;19925;-75
2022/04/04 04:22:40;;;;;;;;;;;0.00;96.70;;;;;;5044281;28;20394;-75
2022/04/04 04:25:07;;;;;;;;;;;0.00;96.70;;;;;;5040745;28;19925;-75
2022/04/04 04:27:35;;;;;;;;;;;0.00;96.60;;;;;;5046897;28;19932;-76
2022/04/04 04:30:04;;;;;;;;;;;0.00;96.60;;;;;;5040384;28;19932;-79
2022/04/04 04:32:31;;;;;;;;;;;-0.10;96.60;;;;;;5040002;28;20012;-76
2022/04/04 04:34:57;;;;;;;;;;;-0.10;96.60;;;;;;5038428;28;19932;-76
2022/04/04 04:37:24;;;;;;;;;;;-0.10;96.70;;;;;;5046776;28;19925;-77
2022/04/04 04:39:52;;;;;;;;;;;-0.10;96.60;;;;;;5041695;28;19928;-77
2022/04/04 04:42:18;;;;;;;;;;;-0.10;96.70;;;;;;5043018;28;20399;-76
2022/04/04 04:44:45;;;;;;;;;;;-0.10;96.60;;;;;;5058894;28;19941;-77
2022/04/04 04:47:15;;;;;;;;;;;-0.10;96.60;;;;;;5036992;28;20019;-75
2022/04/04 04:49:42;;;;;;;;;;;-0.10;96.60;;;;;;5077441;22;19966;-77
2022/04/04 04:52:09;;;;;;;;;;;-0.10;96.60;;;;;;5066272;28;19979;-77
2022/04/04 04:54:36;;;;;;;;;;;-0.10;96.60;;;;;;5074598;28;19931;-77
2022/04/04 04:57:03;;;;;;;;;;;-0.20;96.50;;;;;;5072114;28;19978;-78
2022/04/04 04:59:30;;;;;;;;;;;-0.20;96.50;;;;;;5067754;28;19971;-80
2022/04/04 05:01:57;;;;;;;;;;;-0.20;96.60;;;;;;5064419;28;20558;-79
2022/04/04 05:04:25;;;;;;;;;;;-0.20;96.60;;;;;;5068152;28;20385;-80
2022/04/04 05:06:52;;;;;;;;;;;-0.20;96.70;;;;;;5064040;28;19978;-77
2022/04/04 05:09:19;;;;;;;;;;;-0.20;96.70;;;;;;5070467;28;19932;-79
2022/04/04 05:11:46;;;;;;;;;;;-0.20;96.60;;;;;;5063608;28;19924;-78
2022/04/04 05:14:15;;;;;;;;;;;-0.20;96.50;;;;;;5060167;28;19931;-79
2022/04/04 05:16:43;;;;;;;;;;;-0.20;96.60;;;;;;5072171;28;19933;-80
2022/04/04 05:19:09;;;;;;;;;;;-0.20;96.60;;;;;;5072130;28;20015;-80
2022/04/04 05:21:38;;;;;;;;;;;-0.30;96.60;;;;;;5062983;28;19959;-80
2022/04/04 05:24:05;;;;;;;;;;;-0.30;96.60;;;;;;5062187;28;20341;-80
2022/04/04 05:26:32;;;;;;;;;;;-0.30;96.50;;;;;;5066238;28;20310;-80
2022/04/04 05:28:59;;;;;;;;;;;-0.30;96.50;;;;;;5066975;28;19951;-77
2022/04/04 05:31:27;;;;;;;;;;;-0.30;96.60;;;;;;5068306;28;20004;-77
2022/04/04 05:33:55;;;;;;;;;;;-0.30;96.50;;;;;;5073896;28;19928;-77
2022/04/04 05:36:22;;;;;;;;;;;-0.30;96.60;;;;;;5088154;28;19929;-77
2022/04/04 05:38:50;;;;;;;;;;;-0.30;96.40;;;;;;5067082;28;19968;-77
2022/04/04 05:41:18;;;;;;;;;;;-0.30;96.40;;;;;;5062775;28;20402;-77
2022/04/04 05:43:46;;;;;;;;;;;-0.30;96.40;;;;;;5064636;28;19947;-79
2022/04/04 05:46:13;;;;;;;;;;;-0.30;96.40;;;;;;5061453;28;19932;-77
2022/04/04 05:48:40;;;;;;;;;;;-0.30;96.50;;;;;;5062585;28;20058;-77
2022/04/04 05:51:08;;;;;;;;;;;-0.30;96.50;;;;;;5061399;28;20346;-76
2022/04/04 05:53:35;;;;;;;;;;;-0.30;96.40;;;;;;5060927;28;20394;-76
2022/04/04 05:56:03;;;;;;;;;;;-0.30;96.40;;;;;;5060630;28;20361;-77
2022/04/04 05:58:30;;;;;;;;;;;-0.30;96.40;;;;;;5060170;28;19925;-76
2022/04/04 06:00:58;;;;;;;;;;;-0.30;96.40;;;;;;5064064;28;20036;-77
2022/04/04 06:03:24;;;;;;;;;;;-0.30;96.50;;;;;;5064833;28;19924;-76
2022/04/04 06:05:51;;;;;;;;;;;-0.20;96.60;;;;;;5066387;28;19925;-76
2022/04/04 06:08:18;;;;;;;;;;;-0.20;96.50;;;;;;5062326;28;19978;-77
2022/04/04 06:10:47;;;;;;;;;;;-0.20;96.50;;;;;;5060568;28;20385;-76
2022/04/04 06:13:15;;;;;;;;;;;-0.20;96.50;;;;;;5076342;28;19984;-76
2022/04/04 06:15:42;;;;;;;;;;;-0.20;96.60;;;;;;5062720;28;20002;-77
2022/04/04 06:18:09;;;;;;;;;;;-0.20;96.60;;;;;;5064170;28;19977;-76
2022/04/04 06:20:36;;;;;;;;;;;-0.20;96.70;;;;;;5080595;28;19993;-76
2022/04/04 06:23:04;;;;;;;;;;;-0.20;96.70;;;;;;5062308;28;19932;-77
2022/04/04 06:25:31;;;;;;;;;;;-0.10;96.80;;;;;;5060835;28;19924;-77
2022/04/04 06:27:58;;;;;;;;;;;-0.10;96.80;;;;;;5058402;28;19933;-77
2022/04/04 06:30:27;;;;;;;;;;;-0.10;96.80;;;;;;5065951;28;20012;-77
2022/04/04 06:32:54;;;;;;;;;;;-0.10;96.80;;;;;;5058975;28;20248;-77
2022/04/04 06:35:23;;;;;;;;;;;-0.10;96.70;;;;;;5061587;28;19932;-76
2022/04/04 06:37:52;;;;;;;;;;;-0.10;96.80;;;;;;5060278;28;20023;-76
2022/04/04 06:40:19;;;;;;;;;;;-0.10;96.80;;;;;;5060465;28;19925;-77
2022/04/04 06:42:46;;;;;;;;;;;-0.10;96.80;;;;;;5060079;28;19928;-76
2022/04/04 06:45:14;;;;;;;;;;;0.00;96.80;;;;;;5061658;28;19925;-76
2022/04/04 06:47:42;;;;;;;;;;;0.00;97.00;;;;;;5061018;28;19928;-76
2022/04/04 06:50:09;;;;;;;;;;;0.00;96.80;;;;;;5059428;28;19928;-77
2022/04/04 06:52:37;;;;;;;;;;;0.00;96.80;;;;;;5058002;28;19925;-77
2022/04/04 06:55:05;;;;;;;;;;;0.00;96.80;;;;;;5058652;28;19933;-76
2022/04/04 06:57:32;;;;;;;;;;;0.00;96.80;;;;;;5064206;28;20015;-77
2022/04/04 06:59:58;;;;;;;;;;;0.00;96.80;;;;;;5060617;28;20302;-77
2022/04/04 07:02:25;;;;;;;;;;;0.00;96.80;;;;;;5057922;28;19967;-77
2022/04/04 07:04:53;;;;;;;;;;;0.00;97.10;;;;;;5060036;28;19940;-76
2022/04/04 07:07:22;;;;;;;;;;;0.10;96.90;;;;;;5065796;28;19928;-76
2022/04/04 07:09:49;;;;;;;;;;;0.00;96.90;;;;;;5059541;28;19924;-77
2022/04/04 07:12:16;;;;;;;;;;;0.10;96.90;;;;;;5072392;28;20698;-77
2022/04/04 07:14:43;;;;;;;;;;;0.10;96.90;;;;;;5074072;28;19956;-77
2022/04/04 07:17:10;;;;;;;;;;;0.10;96.90;;;;;;5073488;28;19933;-77
2022/04/04 07:19:37;;;;;;;;;;;0.10;97.00;;;;;;5055452;28;20406;-77
2022/04/04 07:22:05;;;;;;;;;;;0.10;96.90;;;;;;5060218;28;19924;-76
2022/04/04 07:24:32;;;;;;;;;;;0.10;97.00;;;;;;5064778;28;19929;-76
2022/04/04 07:26:59;;;;;;;;;;;0.10;97.00;;;;;;5061702;28;19938;-77
2022/04/04 07:29:26;;;;;;;;;;;0.10;96.90;;;;;;5058039;28;19932;-77
2022/04/04 07:31:54;;;;;;;;;;;0.10;97.00;;;;;;5060934;28;19978;-77
2022/04/04 07:34:20;;;;;;;;;;;0.10;96.90;;;;;;5063442;28;19931;-76
2022/04/04 07:36:48;;;;;;;;;;;0.10;96.90;;;;;;5059498;28;19925;-77
2022/04/04 07:39:16;;;;;;;;;;;0.10;96.90;;;;;;5061877;28;19925;-77
2022/04/04 07:41:43;;;;;;;;;;;0.10;96.90;;;;;;5065465;28;19931;-77
2022/04/04 07:44:10;;;;;;;;;;;0.10;96.90;;;;;;5058657;28;19933;-77
2022/04/04 07:46:37;;;;;;;;;;;0.10;96.90;;;;;;5067623;28;19929;-77
2022/04/04 07:49:03;;;;;;;;;;;0.10;96.90;;;;;;5062266;28;19972;-76
2022/04/04 07:51:30;;;;;;;;;;;0.10;96.90;;;;;;5059401;28;19925;-76
2022/04/04 07:53:57;;;;;;;;;;;0.20;96.90;;;;;;5068047;28;20104;-77
2022/04/04 07:56:25;;;;;;;;;;;0.20;96.80;;;;;;5080637;28;20599;-77
2022/04/04 07:58:52;;;;;;;;;;;0.20;96.70;;;;;;5057790;28;20385;-76
2022/04/04 08:01:19;;;;;;;;;;;0.20;96.70;;;;;;5067967;28;20001;-76
2022/04/04 08:03:46;;;;;;;;;;;0.20;96.70;;;;;;5077870;28;19924;-76
2022/04/04 08:06:13;;;;;;;;;;;0.20;96.70;;;;;;5057587;28;20295;-76
2022/04/04 08:08:41;;;;;;;;;;;0.20;96.60;;;;;;5059829;28;20390;-77
2022/04/04 08:11:09;;;;;;;;;;;0.20;96.60;;;;;;5063767;28;19932;-78
2022/04/04 08:13:42;;;;;;;;;;;0.20;96.60;;;;;;5066601;28;20020;-77
2022/04/04 08:16:09;;;;;;;;;;;0.20;96.50;;;;;;5064706;28;20410;-78
2022/04/04 08:18:36;;;;;;;;;;;0.20;96.50;;;;;;5063686;28;19925;-77
2022/04/04 08:21:03;;;;;;;;;;;0.20;96.40;;;;;;5088196;28;19958;-79
2022/04/04 08:23:31;;;;;;;;;;;0.20;96.40;;;;;;5088344;28;19912;-77
2022/04/04 08:25:58;;;;;;;;;;;0.20;96.40;;;;;;5061896;28;19929;-77
2022/04/04 08:28:27;;;;;;;;;;;0.30;96.50;;;;;;5066761;28;20011;-77
2022/04/04 08:30:56;;;;;;;;;;;0.30;96.50;;;;;;5058691;28;19981;-77
2022/04/04 08:33:24;;;;;;;;;;;0.30;96.50;;;;;;5064836;28;19932;-77
2022/04/04 08:35:53;;;;;;;;;;;0.30;96.50;;;;;;5057167;28;19959;-77
2022/04/04 08:38:20;;;;;;;;;;;0.30;96.50;;;;;;5061668;28;19935;-77
2022/04/04 08:40:49;;;;;;;;;;;0.30;96.50;;;;;;5057328;28;19932;-77
2022/04/04 08:43:17;;;;;;;;;;;0.30;96.50;;;;;;5062000;28;20011;-77
2022/04/04 08:45:45;;;;;;;;;;;0.30;96.60;;;;;;5060426;28;19924;-76
2022/04/04 08:48:13;;;;;;;;;;;0.40;96.50;;;;;;5057134;28;20028;-77
2022/04/04 08:50:40;;;;;;;;;;;0.40;96.60;;;;;;5060126;28;19932;-77
2022/04/04 08:53:07;;;;;;;;;;;0.40;96.60;;;;;;5058211;28;19928;-77
2022/04/04 08:55:35;;;;;;;;;;;0.40;96.30;;;;;;5058496;28;20019;-77
2022/04/04 08:58:02;;;;;;;;;;;0.40;96.30;;;;;;5062126;28;19956;-77
2022/04/04 09:00:30;;;;;;;;;;;0.40;96.30;;;;;;5062409;28;19933;-77
2022/04/04 09:02:57;;;;;;;;;;;0.40;96.30;;;;;;5056812;28;20020;-77
2022/04/04 09:05:26;;;;;;;;;;;0.40;96.10;;;;;;5060227;28;19963;-77
2022/04/04 09:08:00;;;;;;;;;;;0.40;96.40;;;;;;5065026;28;19936;-77
2022/04/04 09:10:31;;;;;;;;;;;0.40;96.30;;;;;;5066728;28;19932;-77
2022/04/04 09:13:05;;;;;;;;;;;0.50;96.30;;;;;;5055955;28;19925;-77
2022/04/04 09:15:48;;;;;;;;;;;0.50;96.20;;;;;;5058401;28;20059;-77
2022/04/04 09:18:15;;;;;;;;;;;0.50;96.00;;;;;;5067439;28;19931;-77
2022/04/04 09:20:49;;;;;;;;;;;0.50;96.00;;;;;;5076300;28;19936;-77
2022/04/04 09:23:16;;;;;;;;;;;0.50;96.10;;;;;;5065566;28;19971;-77
2022/04/04 09:25:43;;;;;;;;;;;0.50;96.00;;;;;;5060522;28;19955;-77
2022/04/04 09:28:16;;;;;;;;;;;0.50;95.90;;;;;;5053702;28;19936;-77
2022/04/04 09:30:43;;;;;;;;;;;0.50;95.60;;;;;;5050547;28;19933;-77
2022/04/04 09:33:13;;;;;;;;;;;0.50;95.60;;;;;;5057298;28;20341;-77
2022/04/04 09:35:45;;;;;;;;;;;0.50;95.70;;;;;;5064085;28;19960;-77
2022/04/04 09:38:14;;;;;;;;;;;0.60;95.80;;;;;;5062074;28;19940;-77
2022/04/04 09:40:41;;;;;;;;;;;0.60;95.80;;;;;;5058722;28;19997;-77
2022/04/04 09:43:08;;;;;;;;;;;0.60;95.80;;;;;;5060695;28;19936;-77
2022/04/04 09:45:35;;;;;;;;;;;0.60;95.50;;;;;;5060913;28;19924;-77
2022/04/04 09:48:03;;;;;;;;;;;0.60;95.50;;;;;;5060917;28;19978;-77
2022/04/04 09:50:35;;;;;;;;;;;0.60;95.80;;;;;;5062829;28;19969;-77
2022/04/04 09:53:02;;;;;;;;;;;0.70;95.80;;;;;;5064312;28;19924;-77
2022/04/04 09:55:32;;;;;;;;;;;0.70;95.80;;;;;;5067377;28;19925;-77
2022/04/04 09:57:59;;;;;;;;;;;0.70;95.70;;;;;;5055216;28;19933;-77
2022/04/04 10:00:27;;;;;;;;;;;0.70;95.70;;;;;;5057291;28;20952;-77
2022/04/04 10:02:55;;;;;;;;;;;0.70;95.80;;;;;;5054048;28;20566;-77
2022/04/04 10:05:24;;;;;;;;;;;0.80;95.80;;;;;;5067526;28;20218;-77
2022/04/04 10:07:52;;;;;;;;;;;0.80;96.00;;;;;;5054906;28;19931;-77
2022/04/04 10:10:20;;;;;;;;;;;0.80;96.10;;;;;;5055483;28;19925;-77
2022/04/04 10:12:48;;;;;;;;;;;0.80;96.30;;;;;;5052796;28;19925;-77
2022/04/04 10:15:15;;;;;;;;;;;0.90;96.20;;;;;;5054119;28;20280;-77
2022/04/04 10:17:43;;;;;;;;;;;0.90;96.20;;;;;;5060574;28;19932;-76
2022/04/04 10:20:11;;;;;;;;;;;0.90;96.50;;;;;;5058820;28;19929;-77
2022/04/04 10:22:39;;;;;;;;;;;0.90;96.70;;;;;;5064448;28;19964;-77
2022/04/04 10:25:07;;;;;;;;;;;1.00;96.90;;;;;;5074919;28;19937;-77
2022/04/04 10:27:34;;;;;;;;;;;1.00;96.80;;;;;;5053711;28;19929;-77
2022/04/04 10:30:05;;;;;;;;;;;1.10;97.00;;;;;;5059004;28;19974;-77
2022/04/04 10:32:32;;;;;;;;;;;1.10;97.10;;;;;;5059236;28;20015;-77
2022/04/04 10:35:08;;;;;;;;;;;1.10;97.10;;;;;;5059949;28;19928;-77
2022/04/04 10:37:41;;;;;;;;;;;1.20;97.40;;;;;;5074206;28;19943;-77
2022/04/04 10:40:15;;;;;;;;;;;1.20;97.50;;;;;;5055690;28;20652;-77
2022/04/04 10:42:43;;;;;;;;;;;1.20;97.40;;;;;;5062826;28;19936;-77
2022/04/04 10:45:12;;;;;;;;;;;1.20;97.40;;;;;;5060219;28;19925;-78
2022/04/04 10:47:40;;;;;;;;;;;1.20;97.60;;;;;;5058327;28;20350;-77
2022/04/04 10:50:24;;;;;;;;;;;1.30;97.50;;;;;;5056930;28;20583;-78
2022/04/04 10:52:51;;;;;;;;;;;1.30;97.60;;;;;;5057657;28;19931;-77
2022/04/04 10:55:26;;;;;;;;;;;1.30;97.70;;;;;;5057100;28;20031;-78
2022/04/04 11:00:52;;;;;;;;;;;1.40;97.90;;;;;;5085489;22;19929;-79
2022/04/04 11:03:26;;;;;;;;;;;1.40;97.80;;;;;;5060164;28;20393;-79
2022/04/04 11:08:43;;;;;;;;;;;1.50;97.80;;;;;;5054362;28;19924;-79
2022/04/04 11:11:19;;;;;;;;;;;1.50;98.00;;;;;;5053240;28;20043;-79
2022/04/04 11:13:50;;;;;;;;;;;1.50;97.80;;;;;;5054129;28;19939;-79
2022/04/04 11:16:19;;;;;;;;;;;1.60;98.00;;;;;;5056080;28;20331;-79
2022/04/04 11:18:52;;;;;;;;;;;1.60;97.70;;;;;;5040764;28;19932;-79
2022/04/04 11:21:34;;;;;;;;;;;1.60;97.40;;;;;;5053320;28;19936;-79
2022/04/04 11:24:07;;;;;;;;;;;1.60;97.10;;;;;;5056839;28;19924;-79
2022/04/04 11:26:34;;;;;;;;;;;1.60;97.00;;;;;;5053179;28;19924;-79
2022/04/04 11:29:01;;;;;;;;;;;1.70;96.70;;;;;;5037341;28;20349;-79
2022/04/04 11:31:29;;;;;;;;;;;1.70;97.00;;;;;;5051765;28;19937;-79
2022/04/04 11:33:57;;;;;;;;;;;1.80;96.20;;;;;;5062905;28;19932;-79
2022/04/04 11:36:25;;;;;;;;;;;1.80;96.50;;;;;;5054313;28;19925;-80
2022/04/04 11:38:56;;;;;;;;;;;1.80;96.60;;;;;;5060350;28;19931;-78
2022/04/04 11:41:24;;;;;;;;;;;1.80;96.60;;;;;;5054966;28;19932;-80
2022/04/04 11:43:52;;;;;;;;;;;1.90;96.00;;;;;;5039585;28;20021;-79
2022/04/04 11:46:19;;;;;;;;;;;1.90;96.40;;;;;;5050865;28;19932;-79
2022/04/04 11:48:54;;;;;;;;;;;1.90;96.20;;;;;;5045660;28;19956;-79
2022/04/04 11:51:25;;;;;;;;;;;1.90;96.20;;;;;;5059274;28;19961;-79
2022/04/04 11:54:01;;;;;;;;;;;1.90;96.30;;;;;;5058008;28;19924;-80
2022/04/04 11:56:27;;;;;;;;;;;1.90;96.40;;;;;;5058383;28;19932;-81
2022/04/04 11:58:55;;;;;;;;;;;1.90;96.10;;;;;;5057233;28;19931;-80
2022/04/04 12:01:27;;;;;;;;;;;2.00;96.50;;;;;;5051833;28;19925;-79
2022/04/04 12:03:56;;;;;;;;;;;2.00;96.60;;;;;;5059189;28;19933;-79
2022/04/04 12:06:22;;;;;;;;;;;2.10;96.40;;;;;;5057167;28;20018;-79
2022/04/04 12:08:49;;;;;;;;;;;2.10;96.40;;;;;;5055483;28;19933;-80
2022/04/04 12:11:26;;;;;;;;;;;2.20;96.40;;;;;;5055325;28;19989;-80
2022/04/04 12:13:56;;;;;;;;;;;2.20;96.60;;;;;;5066798;28;19933;-81
2022/04/04 12:16:23;;;;;;;;;;;2.30;96.50;;;;;;5045933;28;19925;-79
2022/04/04 12:18:53;;;;;;;;;;;2.40;96.40;;;;;;5064405;28;19925;-80
2022/04/04 12:21:22;;;;;;;;;;;2.40;96.70;;;;;;5059763;28;19929;-82
2022/04/04 12:26:34;;;;;;;;;;;2.50;96.60;;;;;;5070054;28;19952;-81
2022/04/04 12:29:03;;;;;;;;;;;2.50;96.70;;;;;;5053349;28;19963;-81
2022/04/04 12:31:29;;;;;;;;;;;2.60;96.70;;;;;;5061466;28;20425;-80
2022/04/04 12:34:01;;;;;;;;;;;2.70;97.30;;;;;;5059839;28;19924;-83
2022/04/04 12:36:30;;;;;;;;;;;2.70;96.80;;;;;;5040519;28;19928;-83
2022/04/04 12:38:58;;;;;;;;;;;2.80;96.30;;;;;;5062494;28;21456;-81
2022/04/04 12:41:25;;;;;;;;;;;2.90;96.00;;;;;;5064451;28;20398;-80
2022/04/04 12:43:59;;;;;;;;;;;3.00;96.40;;;;;;5047769;28;19933;-80
2022/04/04 12:46:27;;;;;;;;;;;3.00;96.60;;;;;;5058409;28;20373;-81
2022/04/04 12:48:55;;;;;;;;;;;3.10;96.70;;;;;;5060775;28;19932;-88
2022/04/04 12:51:26;;;;;;;;;;;3.10;96.80;;;;;;5065912;28;19977;-81
2022/04/04 12:53:54;;;;;;;;;;;3.10;97.00;;;;;;5063040;28;19932;-82
2022/04/04 12:56:21;;;;;;;;;;;3.20;97.00;;;;;;5058520;28;19983;-81
2022/04/04 12:59:02;;;;;;;;;;;3.30;96.60;;;;;;5067662;28;19928;-80
2022/04/04 13:01:29;;;;;;;;;;;3.30;96.40;;;;;;5064271;28;19925;-80
2022/04/04 13:03:56;;;;;;;;;;;3.40;96.90;;;;;;5062462;28;19971;-81
2022/04/04 13:06:23;;;;;;;;;;;3.40;96.20;;;;;;5065985;28;19939;-85
2022/04/04 13:08:56;;;;;;;;;;;3.50;96.50;;;;;;5065602;28;19924;-81
2022/04/04 13:11:24;;;;;;;;;;;3.50;96.40;;;;;;5064558;28;19924;-82
2022/04/04 13:13:59;;;;;;;;;;;3.50;96.70;;;;;;5058050;28;19932;-81
2022/04/04 13:16:30;;;;;;;;;;;3.60;97.10;;;;;;5060819;28;19933;-81
2022/04/04 13:18:56;;;;;;;;;;;3.70;97.20;;;;;;5062510;28;20418;-82
2022/04/04 13:21:23;;;;;;;;;;;3.80;97.50;;;;;;5063732;28;19929;-84
2022/04/04 13:23:50;;;;;;;;;;;3.80;97.60;;;;;;5066565;28;19935;-81
2022/04/04 13:26:18;;;;;;;;;;;3.90;97.50;;;;;;5067810;28;19930;-81
2022/04/04 13:28:45;;;;;;;;;;;4.00;97.40;;;;;;5060113;28;19928;-83
2022/04/04 13:31:12;;;;;;;;;;;4.00;97.80;;;;;;5059430;28;19928;-84
2022/04/04 13:33:39;;;;;;;;;;;4.00;98.20;;;;;;5071011;28;19971;-83
2022/04/04 13:36:06;;;;;;;;;;;4.10;98.40;;;;;;5068594;28;20032;-81
2022/04/04 13:38:33;;;;;;;;;;;4.20;98.40;;;;;;5063148;28;19940;-84
2022/04/04 13:41:00;;;;;;;;;;;4.30;98.70;;;;;;5065208;28;19928;-81
2022/04/04 13:43:29;;;;;;;;;;;4.30;99.00;;;;;;5066096;28;19924;-82
2022/04/04 13:45:55;;;;;;;;;;;4.30;98.70;;;;;;5059794;28;19933;-81
2022/04/04 13:48:22;;;;;;;;;;;4.40;98.60;;;;;;5050285;28;19924;-82
2022/04/04 13:50:49;;;;;;;;;;;4.50;99.10;;;;;;5046123;28;19932;-81
2022/04/04 13:53:16;;;;;;;;;;;4.50;98.90;;;;;;5067638;28;19939;-84
2022/04/04 13:55:43;;;;;;;;;;;4.50;99.30;;;;;;5064319;28;19931;-82
2022/04/04 13:58:10;;;;;;;;;;;4.50;99.40;;;;;;5064423;28;19933;-81
2022/04/04 14:00:39;;;;;;;;;;;4.70;99.30;;;;;;5048081;28;19967;-81
2022/04/04 14:03:06;;;;;;;;;;;4.90;99.10;;;;;;5061671;28;19939;-80
2022/04/04 14:05:33;;;;;;;;;;;4.90;99.00;;;;;;5068191;28;19931;-81
2022/04/04 14:08:00;;;;;;;;;;;5.00;98.60;;;;;;5065536;28;19924;-81
2022/04/04 14:10:27;;;;;;;;;;;5.10;99.00;;;;;;5062659;28;19925;-81
2022/04/04 14:12:54;;;;;;;;;;;5.00;99.20;;;;;;5072359;28;19963;-81
2022/04/04 14:15:20;;;;;;;;;;;5.00;98.90;;;;;;5064240;28;19978;-82
2022/04/04 14:17:49;;;;;;;;;;;5.00;99.20;;;;;;5060304;28;19928;-81
2022/04/04 14:20:16;;;;;;;;;;;5.10;99.50;;;;;;5061910;28;19932;-80
2022/04/04 14:22:44;;;;;;;;;;;5.20;99.20;;;;;;5056527;28;19933;-82
2022/04/04 14:25:11;;;;;;;;;;;5.30;99.30;;;;;;5069162;28;19933;-81
2022/04/04 14:27:38;;;;;;;;;;;5.40;98.90;;;;;;5051648;28;19935;-80
2022/04/04 14:30:06;;;;;;;;;;;5.40;98.90;;;;;;5049397;28;19924;-87
2022/04/04 14:32:33;;;;;;;;;;;5.50;98.80;;;;;;5043207;28;20032;-81
2022/04/04 14:35:01;;;;;;;;;;;5.50;98.60;;;;;;5066934;28;19928;-82
2022/04/04 14:37:28;;;;;;;;;;;5.50;98.20;;;;;;5063302;28;19956;-81
2022/04/04 14:39:54;;;;;;;;;;;5.50;98.40;;;;;;5064370;28;19928;-81
2022/04/04 14:42:21;;;;;;;;;;;5.50;98.60;;;;;;5071864;28;19932;-86
2022/04/04 14:44:52;;;;;;;;;;;5.60;98.70;;;;;;5067835;28;19933;-80
2022/04/04 14:47:19;;;;;;;;;;;5.60;98.60;;;;;;5071636;28;19928;-84